createdAt,value
2018-12-19T11:19:11.923Z,13.93
2018-12-19T11:21:44.487Z,13.25
2018-12-19T11:24:17.222Z,11.83
2018-12-19T11:26:50.290Z,12.68
2018-12-19T11:29:22.893Z,10.88
2018-12-19T11:31:56.504Z,12.80
2018-12-19T11:34:29.236Z,14.40
2018-12-19T11:37:01.826Z,12.00
2018-12-19T11:39:34.458Z,11.40
2018-12-19T11:42:07.906Z,12.45
2018-12-19T11:44:40.477Z,12.90
2018-12-19T11:47:14.078Z,13.15
2018-12-19T11:49:47.195Z,12.10
2018-12-19T11:52:19.821Z,12.28
2018-12-19T11:54:52.455Z,11.78
2018-12-19T11:57:25.040Z,11.80
2018-12-19T11:59:57.988Z,14.30
2018-12-19T12:02:30.567Z,14.58
2018-12-19T12:05:03.897Z,13.68
2018-12-19T12:07:38.764Z,11.80
2018-12-19T12:10:11.484Z,10.80
2018-12-19T12:12:44.074Z,13.38
2018-12-19T12:15:16.708Z,10.78
2018-12-19T12:17:49.325Z,11.30
2018-12-19T12:20:21.898Z,14.18
2018-12-19T12:22:54.469Z,12.80
2018-12-19T12:25:27.093Z,10.50
2018-12-19T12:27:59.661Z,11.00
2018-12-19T12:30:32.233Z,9.83
2018-12-19T12:33:05.349Z,10.35
2018-12-19T12:35:38.393Z,11.12
2018-12-19T12:38:10.996Z,7.12
2018-12-19T12:40:43.547Z,8.13
2018-12-19T12:43:16.242Z,8.50
2018-12-19T12:45:48.872Z,11.33
2018-12-19T12:48:21.431Z,10.10
2018-12-19T12:50:53.989Z,8.55
2018-12-19T12:53:27.316Z,10.53
2018-12-19T12:55:59.984Z,7.92
2018-12-19T12:58:32.513Z,6.35
2018-12-19T13:01:05.186Z,7.17
2018-12-19T13:03:37.798Z,7.67
2018-12-19T13:06:10.414Z,6.78
2018-12-19T13:08:44.163Z,6.62
2018-12-19T13:11:16.784Z,7.55
2018-12-19T13:13:49.338Z,6.95
2018-12-19T13:16:22.164Z,6.97
2018-12-19T13:18:54.830Z,6.90
2018-12-19T13:21:27.390Z,7.90
2018-12-19T13:24:01.035Z,8.33
2018-12-19T13:26:33.727Z,6.87
2018-12-19T13:29:06.530Z,5.85
2018-12-19T13:31:39.150Z,6.58
2018-12-19T13:34:11.722Z,6.33
2018-12-19T13:36:44.398Z,6.30
2018-12-19T13:39:16.971Z,6.20
2018-12-19T13:41:50.232Z,6.10
2018-12-19T13:44:22.933Z,6.12
2018-12-19T13:46:55.634Z,6.58
2018-12-19T13:49:28.225Z,6.12
2018-12-19T13:52:00.765Z,6.80
2018-12-19T13:54:35.050Z,5.75
2018-12-19T13:57:09.328Z,6.25
2018-12-19T13:59:41.926Z,5.25
2018-12-19T14:02:14.498Z,6.92
2018-12-19T14:04:47.784Z,8.83
2018-12-19T14:07:21.103Z,6.28
2018-12-19T14:09:54.900Z,6.33
2018-12-19T14:12:29.344Z,7.00
2018-12-19T14:16:31.754Z,6.25
2018-12-19T14:19:07.284Z,6.62
2018-12-19T14:21:39.891Z,5.75
2018-12-19T14:24:12.442Z,6.53
2018-12-19T14:26:45.150Z,9.43
2018-12-19T14:29:18.972Z,8.50
2018-12-19T14:31:55.579Z,5.08
2018-12-19T14:34:29.202Z,5.35
2018-12-19T14:37:01.876Z,6.12
2018-12-19T14:39:35.582Z,5.45
2018-12-19T14:42:18.978Z,4.37
2018-12-19T14:44:56.047Z,4.75
2018-12-19T14:47:34.587Z,4.45
2018-12-19T14:50:07.941Z,5.30
2018-12-19T14:52:40.528Z,6.17
2018-12-19T14:55:13.138Z,7.92
2018-12-19T14:57:45.948Z,5.45
2018-12-19T15:00:18.837Z,4.90
2018-12-19T15:02:55.715Z,5.53
2018-12-19T15:05:28.244Z,6.70
2018-12-19T15:08:00.939Z,9.23
2018-12-19T15:10:33.615Z,6.42
2018-12-19T15:13:06.264Z,5.25
2018-12-19T15:15:38.894Z,4.75
2018-12-19T15:18:11.906Z,5.00
2018-12-19T15:20:44.554Z,5.12
2018-12-19T15:23:19.011Z,5.28
2018-12-19T15:25:53.775Z,4.92
2018-12-19T15:28:33.621Z,4.53
2018-12-19T15:31:07.791Z,5.25
2018-12-19T15:33:41.336Z,5.03
2018-12-19T15:36:15.553Z,6.37
2018-12-19T15:38:48.291Z,8.88
2018-12-19T15:41:23.736Z,14.18
2018-12-19T15:43:57.341Z,17.52
2018-12-19T15:46:36.517Z,14.95
2018-12-19T15:49:09.969Z,17.15
2018-12-19T15:51:45.009Z,17.67
2018-12-19T15:54:21.763Z,17.95
2018-12-19T15:56:55.079Z,19.23
2018-12-19T15:59:28.344Z,19.40
2018-12-19T16:02:01.032Z,19.37
2018-12-19T16:04:34.238Z,20.72
2018-12-19T16:07:08.975Z,20.25
2018-12-19T16:09:43.068Z,22.62
2018-12-19T16:12:23.038Z,21.68
2018-12-19T16:15:03.008Z,18.77
2018-12-19T16:17:35.625Z,20.77
2018-12-19T16:20:15.120Z,23.00
2018-12-19T16:22:48.061Z,20.00
2018-12-19T16:25:20.727Z,20.08
2018-12-19T16:27:56.430Z,18.77
2018-12-19T16:30:31.264Z,20.25
2018-12-19T16:33:05.155Z,22.55
2018-12-19T16:35:41.405Z,17.10
2018-12-19T16:38:18.410Z,18.48
2018-12-19T16:40:55.639Z,16.48
2018-12-19T16:43:32.672Z,21.87
2018-12-19T16:46:05.442Z,20.02
2018-12-19T16:48:39.527Z,21.77
2018-12-19T16:51:14.233Z,15.65
2018-12-19T16:53:49.584Z,16.45
2018-12-19T16:59:30.489Z,17.42
2018-12-19T17:02:05.604Z,20.77
2018-12-19T17:04:39.461Z,19.15
2018-12-19T17:07:12.626Z,18.75
2018-12-19T17:09:45.339Z,20.65
2018-12-19T17:12:18.840Z,22.07
2018-12-19T17:14:51.479Z,22.70
2018-12-19T17:17:24.140Z,23.30
2018-12-19T17:19:57.525Z,21.57
2018-12-19T17:22:30.211Z,21.25
2018-12-19T17:25:03.050Z,20.52
2018-12-19T17:27:37.009Z,23.75
2018-12-19T17:30:11.134Z,22.75
2018-12-19T17:32:45.561Z,20.52
2018-12-19T17:35:19.189Z,22.93
2018-12-19T17:37:52.572Z,20.97
2018-12-19T17:40:25.460Z,21.42
2018-12-19T17:42:59.511Z,22.17
2018-12-19T17:45:32.923Z,17.92
2018-12-19T17:48:06.009Z,19.15
2018-12-19T17:50:39.203Z,22.40
2018-12-19T17:53:12.115Z,27.80
2018-12-19T17:55:49.218Z,24.27
2018-12-19T17:58:26.434Z,24.82
2018-12-19T18:01:07.552Z,22.75
2018-12-19T18:03:43.560Z,20.62
2018-12-19T18:06:18.760Z,19.92
2018-12-19T18:08:52.242Z,19.70
2018-12-19T18:11:27.615Z,20.15
2018-12-19T18:14:06.689Z,20.35
2018-12-19T18:16:40.651Z,21.00
2018-12-19T18:19:23.108Z,22.77
2018-12-19T18:21:51.285Z,20.55
2018-12-19T18:24:26.735Z,19.37
2018-12-19T18:27:00.507Z,23.05
2018-12-19T18:29:33.432Z,23.00
2018-12-19T18:32:06.187Z,22.10
2018-12-19T18:34:38.799Z,26.02
2018-12-19T18:37:11.474Z,20.60
2018-12-19T18:39:43.990Z,21.25
2018-12-19T18:42:17.693Z,18.82
2018-12-19T18:44:50.286Z,26.00
2018-12-19T18:47:22.966Z,19.52
2018-12-19T18:49:55.601Z,21.25
2018-12-19T18:52:28.246Z,22.27
2018-12-19T18:55:00.824Z,20.95
2018-12-19T18:57:34.362Z,21.52
2018-12-19T19:00:08.295Z,19.23
2018-12-19T19:02:42.034Z,22.10
2018-12-19T19:05:16.943Z,18.52
2018-12-19T19:07:50.247Z,22.98
2018-12-19T19:10:22.822Z,19.42
2018-12-19T19:12:56.413Z,21.40
2018-12-19T19:15:31.139Z,22.60
2018-12-19T19:18:04.357Z,16.93
2018-12-19T19:20:38.003Z,18.60
2018-12-19T19:23:12.457Z,16.40
2018-12-19T19:25:48.885Z,17.73
2018-12-19T19:28:29.503Z,19.42
2018-12-19T19:31:03.862Z,14.73
2018-12-19T19:33:40.117Z,16.62
2018-12-19T19:36:13.579Z,15.68
2018-12-19T19:38:46.729Z,19.25
2018-12-19T19:41:21.853Z,14.68
2018-12-19T19:44:01.204Z,15.80
2018-12-19T19:46:35.256Z,16.60
2018-12-19T19:49:11.640Z,18.95
2018-12-19T19:51:44.806Z,15.93
2018-12-19T19:54:17.548Z,17.95
2018-12-19T19:56:51.288Z,18.57
2018-12-19T19:59:24.084Z,20.17
2018-12-19T20:01:59.509Z,14.45
2018-12-19T20:04:36.792Z,15.35
2018-12-19T20:07:09.863Z,16.32
2018-12-19T20:09:44.297Z,15.75
2018-12-19T20:12:17.134Z,16.23
2018-12-19T20:14:49.835Z,18.00
2018-12-19T20:17:27.368Z,16.57
2018-12-19T20:20:00.436Z,17.62
2018-12-19T20:22:33.120Z,22.90
2018-12-19T20:25:10.308Z,19.30
2018-12-19T20:27:45.371Z,21.15
2018-12-19T20:30:19.286Z,17.62
2018-12-19T20:32:52.057Z,18.48
2018-12-19T20:35:24.973Z,23.10
2018-12-19T20:37:59.344Z,18.32
2018-12-19T20:40:32.870Z,20.27
2018-12-19T20:43:06.755Z,19.85
2018-12-19T20:45:39.942Z,18.87
2018-12-19T20:48:13.394Z,21.30
2018-12-19T20:51:04.559Z,17.60
2018-12-19T20:53:38.952Z,20.57
2018-12-19T20:56:12.603Z,21.23
2018-12-19T20:58:45.417Z,21.73
2018-12-19T21:01:18.728Z,16.85
2018-12-19T21:03:51.844Z,27.90
2018-12-19T21:06:26.481Z,24.52
2018-12-19T21:09:01.330Z,21.07
2018-12-19T21:11:40.830Z,25.32
2018-12-19T21:14:19.613Z,21.40
2018-12-19T21:17:01.098Z,31.57
2018-12-19T21:19:36.047Z,21.60
2018-12-19T21:22:12.767Z,26.00
2018-12-19T21:26:55.596Z,21.73
2018-12-19T21:29:33.450Z,22.27
2018-12-19T21:32:09.970Z,21.37
2018-12-19T21:34:46.094Z,22.65
2018-12-19T21:37:21.512Z,26.82
2018-12-19T21:39:54.772Z,23.65
2018-12-19T21:42:28.859Z,26.60
2018-12-19T21:45:03.685Z,26.40
2018-12-19T21:47:41.749Z,27.65
2018-12-19T21:50:19.187Z,28.45
2018-12-19T21:52:56.088Z,24.25
2018-12-19T21:55:31.673Z,28.67
2018-12-19T21:58:04.351Z,23.80
2018-12-19T22:00:39.404Z,27.00
2018-12-19T22:03:16.085Z,32.80
2018-12-19T22:05:51.858Z,27.93
2018-12-19T22:08:24.590Z,25.10
2018-12-19T22:10:58.240Z,25.02
2018-12-19T22:13:35.006Z,32.67
2018-12-19T22:16:15.530Z,24.35
2018-12-19T22:18:48.573Z,26.30
2018-12-19T22:21:21.456Z,25.75
2018-12-19T22:23:54.245Z,26.48
2018-12-19T22:26:30.976Z,25.60
2018-12-19T22:29:03.775Z,26.77
2018-12-19T22:31:36.452Z,28.57
2018-12-19T22:34:09.188Z,26.80
2018-12-19T22:36:41.854Z,35.25
2018-12-19T22:39:17.676Z,33.70
2018-12-19T22:41:50.378Z,32.50
2018-12-19T22:44:23.822Z,32.85
2018-12-19T22:46:57.720Z,33.48
2018-12-19T22:49:30.462Z,35.63
2018-12-19T22:52:03.170Z,31.00
2018-12-19T22:54:35.918Z,30.82
2018-12-19T22:57:08.647Z,27.90
2018-12-19T23:02:54.974Z,32.15
2018-12-19T23:05:33.568Z,34.78
2018-12-19T23:08:06.577Z,35.85
2018-12-19T23:10:39.300Z,30.20
2018-12-19T23:13:12.048Z,27.85
2018-12-19T23:15:46.712Z,28.23
2018-12-19T23:18:27.198Z,30.27
2018-12-19T23:21:06.162Z,35.73
2018-12-19T23:23:45.877Z,36.23
2018-12-19T23:26:20.862Z,30.62
2018-12-19T23:29:01.254Z,30.15
2018-12-19T23:31:35.942Z,34.20
2018-12-19T23:34:09.422Z,31.70
2018-12-19T23:36:42.232Z,29.63
2018-12-19T23:39:14.852Z,29.48
2018-12-19T23:41:48.636Z,35.75
2018-12-19T23:44:27.651Z,33.20
2018-12-19T23:47:00.503Z,32.00
2018-12-19T23:52:40.944Z,29.65
2018-12-19T23:55:13.603Z,32.85
2018-12-19T23:57:46.274Z,33.02
